Time;durP1;ratioP1;P1;durP2;ratioP2;P2;SDS_P1;SDS_P2;PMS_P1;PMS_P2;Temp;Humidity;BMP_temperature;BMP_pressure;BME280_temperature;BME280_humidity;BME280_pressure;Samples;Min_cycle;Max_cycle;Signal;HPM_P1;HPM_P2
2021/09/14 00:00:02;;;;;;;43.60;29.40;;;;;;;;;;5099218;28;20459;-56
2021/09/14 00:02:30;;;;;;;23.57;17.67;;;;;;;;;;5098845;28;20436;-51
2021/09/14 00:04:57;;;;;;;28.57;18.10;;;;;;;;;;5099064;28;20472;-51
2021/09/14 00:07:36;;;;;;;25.83;14.37;;;;;;;;;;5098902;28;20456;-48
2021/09/14 00:10:04;;;;;;;10.33;9.07;;;;;;;;;;5097650;28;20476;-55
2021/09/14 00:12:31;;;;;;;23.53;14.60;;;;;;;;;;5099154;28;20444;-51
2021/09/14 00:15:00;;;;;;;16.20;12.00;;;;;;;;;;5098883;28;20432;-54
2021/09/14 00:17:27;;;;;;;17.47;12.07;;;;;;;;;;5099146;28;20441;-52
2021/09/14 00:19:54;;;;;;;23.27;17.60;;;;;;;;;;5099359;28;20490;-47
2021/09/14 00:22:29;;;;;;;23.23;16.67;;;;;;;;;;5098783;28;20492;-55
2021/09/14 00:24:58;;;;;;;24.57;17.50;;;;;;;;;;5098819;28;20491;-46
2021/09/14 00:27:25;;;;;;;37.70;25.30;;;;;;;;;;5098868;28;20440;-48
2021/09/14 00:30:03;;;;;;;31.43;21.47;;;;;;;;;;5099107;28;20425;-53
2021/09/14 00:32:31;;;;;;;29.10;20.30;;;;;;;;;;5098499;28;20460;-53
2021/09/14 00:34:58;;;;;;;27.10;17.53;;;;;;;;;;5098597;28;20490;-52
2021/09/14 00:37:25;;;;;;;22.10;14.27;;;;;;;;;;5098730;28;20486;-51
2021/09/14 00:39:52;;;;;;;20.33;14.47;;;;;;;;;;5079334;28;20465;-53
2021/09/14 00:42:21;;;;;;;16.80;12.70;;;;;;;;;;5078241;28;20724;-54
2021/09/14 00:45:00;;;;;;;17.00;14.33;;;;;;;;;;5079117;28;20485;-51
2021/09/14 00:47:30;;;;;;;17.00;13.17;;;;;;;;;;5078487;28;20441;-52
2021/09/14 00:49:57;;;;;;;18.70;15.23;;;;;;;;;;5078360;28;20530;-59
2021/09/14 00:52:53;;;;;;;18.10;15.13;;;;;;;;;;5078245;28;20488;-52
2021/09/14 00:55:23;;;;;;;16.20;12.20;;;;;;;;;;5077889;28;20452;-47
2021/09/14 00:57:51;;;;;;;18.93;11.80;;;;;;;;;;5077598;28;20523;-57
2021/09/14 01:00:34;;;;;;;21.97;15.50;;;;;;;;;;5077673;28;20437;-53
2021/09/14 01:03:01;;;;;;;18.80;13.50;;;;;;;;;;5077926;28;20457;-55
2021/09/14 01:05:29;;;;;;;24.13;17.70;;;;;;;;;;5077819;28;20445;-54
2021/09/14 01:07:57;;;;;;;28.00;21.60;;;;;;;;;;5084579;28;20452;-47
2021/09/14 01:10:25;;;;;;;23.00;16.60;;;;;;;;;;5097826;28;20514;-52
2021/09/14 01:12:53;;;;;;;19.73;16.63;;;;;;;;;;5098172;28;20464;-46
2021/09/14 01:15:21;;;;;;;22.03;16.80;;;;;;;;;;5097759;28;20456;-51
2021/09/14 01:17:48;;;;;;;18.20;14.50;;;;;;;;;;5097311;28;20631;-49
2021/09/14 01:20:15;;;;;;;16.07;13.60;;;;;;;;;;5097633;28;20452;-54
2021/09/14 01:23:09;;;;;;;20.93;13.70;;;;;;;;;;5097717;28;20460;-52
2021/09/14 01:25:38;;;;;;;16.23;13.40;;;;;;;;;;5097280;28;20432;-49
2021/09/14 01:28:05;;;;;;;20.73;13.63;;;;;;;;;;5097119;28;20456;-53
2021/09/14 01:30:39;;;;;;;30.03;13.00;;;;;;;;;;5097414;28;20474;-50
2021/09/14 01:33:07;;;;;;;16.50;13.63;;;;;;;;;;5096997;28;20521;-48
2021/09/14 01:35:34;;;;;;;19.80;14.40;;;;;;;;;;5098014;28;20436;-56
2021/09/14 01:38:14;;;;;;;15.77;12.00;;;;;;;;;;5097103;28;20452;-48
2021/09/14 01:40:47;;;;;;;14.17;11.10;;;;;;;;;;5097337;28;20525;-53
2021/09/14 01:43:14;;;;;;;16.10;12.30;;;;;;;;;;5096600;28;20524;-48
2021/09/14 01:45:43;;;;;;;15.53;13.00;;;;;;;;;;5096824;28;20453;-52
2021/09/14 01:48:10;;;;;;;23.53;13.87;;;;;;;;;;5096025;28;20456;-59
2021/09/14 01:50:38;;;;;;;16.13;12.40;;;;;;;;;;5097105;28;20442;-56
2021/09/14 01:53:07;;;;;;;18.73;13.63;;;;;;;;;;5084453;28;20460;-56
2021/09/14 01:55:34;;;;;;;21.47;12.50;;;;;;;;;;5096540;28;20432;-49
2021/09/14 01:58:03;;;;;;;15.03;13.43;;;;;;;;;;5096887;28;20476;-56
2021/09/14 02:00:34;;;;;;;17.00;12.27;;;;;;;;;;5097010;28;20460;-54
2021/09/14 02:08:51;;;;;;;13.37;11.90;;;;;;;;;;5091438;28;20494;-54
2021/09/14 02:40:35;;;;;;;13.93;11.57;;;;;;;;;;5075531;28;20432;-58
2021/09/14 02:43:15;;;;;;;13.40;10.70;;;;;;;;;;5096623;28;20453;-54
2021/09/14 02:59:39;;;;;;;17.17;12.13;;;;;;;;;;5075669;28;20412;-48
2021/09/14 03:02:37;;;;;;;17.03;12.00;;;;;;;;;;5096400;28;20439;-50
2021/09/14 03:05:06;;;;;;;12.97;10.60;;;;;;;;;;5075626;28;20492;-55
2021/09/14 03:07:33;;;;;;;15.57;11.90;;;;;;;;;;5076073;28;20512;-51
2021/09/14 03:10:26;;;;;;;14.40;11.63;;;;;;;;;;5076230;28;20457;-51
2021/09/14 03:12:53;;;;;;;19.60;12.80;;;;;;;;;;5075620;28;20471;-52
2021/09/14 03:15:20;;;;;;;19.53;13.10;;;;;;;;;;5096016;28;20436;-56
2021/09/14 03:17:55;;;;;;;14.20;11.30;;;;;;;;;;5095818;28;20578;-53
2021/09/14 03:20:23;;;;;;;16.43;11.97;;;;;;;;;;5065650;28;20488;-56
2021/09/14 03:22:51;;;;;;;16.47;12.00;;;;;;;;;;5075905;28;20464;-57
2021/09/14 03:25:28;;;;;;;13.60;11.50;;;;;;;;;;5075695;28;20479;-49
2021/09/14 03:27:56;;;;;;;13.40;10.97;;;;;;;;;;5075733;28;20479;-56
2021/09/14 03:30:23;;;;;;;15.60;11.00;;;;;;;;;;5075915;28;20444;-55
2021/09/14 03:33:11;;;;;;;13.73;12.27;;;;;;;;;;5070186;28;20466;-53
2021/09/14 03:35:40;;;;;;;13.13;9.90;;;;;;;;;;5055737;28;20450;-53
2021/09/14 03:38:07;;;;;;;12.07;10.30;;;;;;;;;;5055748;28;20466;-52
2021/09/14 03:40:45;;;;;;;12.97;10.47;;;;;;;;;;5055531;28;20493;-53
2021/09/14 03:43:13;;;;;;;14.33;10.10;;;;;;;;;;5055864;28;20472;-50
2021/09/14 03:45:42;;;;;;;18.00;10.40;;;;;;;;;;5059449;28;20458;-56
2021/09/14 03:48:33;;;;;;;12.40;10.50;;;;;;;;;;5059550;28;20482;-52
2021/09/14 03:51:01;;;;;;;13.40;11.80;;;;;;;;;;5074051;28;20445;-51
2021/09/14 03:53:29;;;;;;;11.10;10.00;;;;;;;;;;5079769;28;20479;-54
2021/09/14 03:55:57;;;;;;;10.53;9.43;;;;;;;;;;5079277;28;20520;-52
2021/09/14 03:58:24;;;;;;;12.70;10.03;;;;;;;;;;5078975;28;20456;-49
2021/09/14 04:00:59;;;;;;;15.67;11.63;;;;;;;;;;5079307;28;20429;-53
2021/09/14 04:03:38;;;;;;;14.97;10.10;;;;;;;;;;5078709;28;20432;-49
2021/09/14 04:09:14;;;;;;;11.60;9.80;;;;;;;;;;5069582;28;20452;-56
2021/09/14 04:11:47;;;;;;;18.03;11.97;;;;;;;;;;5059437;28;20438;-53
2021/09/14 04:14:28;;;;;;;11.53;10.17;;;;;;;;;;5079424;28;20460;-50
2021/09/14 04:16:56;;;;;;;16.03;11.57;;;;;;;;;;5079271;28;20464;-56
2021/09/14 04:19:23;;;;;;;14.40;11.93;;;;;;;;;;5078642;28;20519;-59
2021/09/14 04:21:51;;;;;;;13.43;10.67;;;;;;;;;;5078842;28;20440;-54
2021/09/14 04:27:23;;;;;;;13.73;12.00;;;;;;;;;;5079819;28;20514;-54
2021/09/14 04:29:50;;;;;;;14.10;11.10;;;;;;;;;;5099123;28;20417;-50
2021/09/14 04:33:05;;;;;;;14.30;12.13;;;;;;;;;;5099195;28;20439;-52
2021/09/14 04:35:35;;;;;;;13.20;10.97;;;;;;;;;;5078317;28;20470;-54
2021/09/14 04:38:05;;;;;;;15.50;10.80;;;;;;;;;;5080435;28;20453;-53
2021/09/14 04:40:35;;;;;;;16.40;10.57;;;;;;;;;;5096439;28;20604;-55
2021/09/14 04:49:06;;;;;;;13.83;12.17;;;;;;;;;;5093529;28;20468;-53
2021/09/14 04:51:36;;;;;;;13.23;10.80;;;;;;;;;;5098869;28;20444;-58
2021/09/14 04:57:23;;;;;;;13.03;10.00;;;;;;;;;;5077750;28;20467;-57
2021/09/14 04:59:52;;;;;;;13.80;11.10;;;;;;;;;;5072106;28;20456;-53
2021/09/14 05:02:20;;;;;;;15.60;11.33;;;;;;;;;;5078540;28;20453;-60
2021/09/14 05:04:49;;;;;;;26.87;11.70;;;;;;;;;;5078297;28;20545;-52
2021/09/14 05:07:17;;;;;;;14.27;11.70;;;;;;;;;;5078197;28;20441;-58
2021/09/14 05:12:31;;;;;;;16.50;11.70;;;;;;;;;;5076901;28;20441;-53
2021/09/14 05:14:58;;;;;;;17.20;13.80;;;;;;;;;;5094132;28;20483;-57
2021/09/14 05:17:25;;;;;;;15.27;12.83;;;;;;;;;;5097040;28;20456;-57
2021/09/14 05:23:10;;;;;;;19.23;14.00;;;;;;;;;;5091339;28;20499;-57
2021/09/14 05:25:40;;;;;;;13.47;11.60;;;;;;;;;;5096663;28;20472;-48
2021/09/14 05:28:10;;;;;;;17.17;12.10;;;;;;;;;;5096665;28;20467;-53
2021/09/14 05:30:46;;;;;;;13.90;10.90;;;;;;;;;;5096697;28;20440;-56
2021/09/14 05:33:39;;;;;;;14.03;11.00;;;;;;;;;;5096570;28;20436;-53
2021/09/14 05:36:15;;;;;;;14.20;10.90;;;;;;;;;;5097170;28;20456;-55
2021/09/14 05:38:44;;;;;;;14.50;11.93;;;;;;;;;;5097860;28;20519;-52
2021/09/14 05:41:18;;;;;;;13.97;10.50;;;;;;;;;;5097234;28;20463;-56
2021/09/14 05:43:47;;;;;;;19.90;11.87;;;;;;;;;;5096015;28;20482;-53
2021/09/14 05:46:20;;;;;;;14.70;11.00;;;;;;;;;;5096533;28;20495;-52
2021/09/14 05:48:57;;;;;;;15.20;11.60;;;;;;;;;;5090098;28;20444;-56
2021/09/14 05:51:25;;;;;;;12.30;9.47;;;;;;;;;;5096444;28;20475;-56
2021/09/14 05:53:53;;;;;;;17.67;11.87;;;;;;;;;;5097237;28;20416;-54
2021/09/14 05:56:21;;;;;;;17.70;11.87;;;;;;;;;;5078578;28;20458;-54
2021/09/14 05:58:52;;;;;;;14.63;11.47;;;;;;;;;;5096000;28;20448;-59
2021/09/14 06:01:20;;;;;;;16.73;10.77;;;;;;;;;;5095437;28;20444;-58
2021/09/14 06:03:52;;;;;;;14.70;11.60;;;;;;;;;;5095815;28;20503;-49
2021/09/14 06:06:44;;;;;;;24.23;11.23;;;;;;;;;;5089292;28;20484;-49
2021/09/14 06:09:13;;;;;;;17.07;11.57;;;;;;;;;;5094851;28;20534;-55
2021/09/14 06:11:41;;;;;;;13.40;9.80;;;;;;;;;;5096064;28;20432;-51
2021/09/14 06:17:16;;;;;;;12.67;9.50;;;;;;;;;;5094036;28;20431;-54
2021/09/14 06:19:46;;;;;;;11.37;9.60;;;;;;;;;;5095399;28;20523;-53
2021/09/14 06:22:13;;;;;;;13.77;9.23;;;;;;;;;;5082118;28;20485;-54
2021/09/14 06:24:40;;;;;;;11.80;10.07;;;;;;;;;;5088135;28;20475;-50
2021/09/14 06:27:10;;;;;;;13.47;9.67;;;;;;;;;;5095910;28;20843;-54
2021/09/14 06:29:38;;;;;;;12.77;9.50;;;;;;;;;;5096323;28;20436;-63
2021/09/14 06:32:07;;;;;;;16.40;11.00;;;;;;;;;;5095973;28;20447;-56
2021/09/14 06:34:50;;;;;;;12.53;9.73;;;;;;;;;;5079286;28;20467;-57
2021/09/14 06:37:17;;;;;;;11.53;8.97;;;;;;;;;;5095410;28;20444;-52
2021/09/14 06:39:45;;;;;;;11.50;8.00;;;;;;;;;;5093520;28;20459;-52
2021/09/14 06:42:16;;;;;;;12.20;8.70;;;;;;;;;;5095776;28;20436;-56
2021/09/14 06:44:47;;;;;;;12.07;8.20;;;;;;;;;;5095696;28;20488;-59
2021/09/14 06:47:39;;;;;;;10.13;8.40;;;;;;;;;;5095832;28;20508;-54
2021/09/14 06:50:39;;;;;;;10.40;7.83;;;;;;;;;;5096561;28;20456;-58
2021/09/14 06:56:11;;;;;;;11.37;7.80;;;;;;;;;;5093103;28;20406;-55
2021/09/14 06:58:39;;;;;;;13.37;8.37;;;;;;;;;;5095977;28;20421;-51
2021/09/14 07:01:26;;;;;;;11.47;7.50;;;;;;;;;;5095551;28;20494;-54
2021/09/14 07:03:56;;;;;;;9.53;7.47;;;;;;;;;;5082840;28;20457;-56
2021/09/14 07:06:33;;;;;;;10.83;7.90;;;;;;;;;;5075338;28;20511;-54
2021/09/14 07:09:15;;;;;;;8.93;7.47;;;;;;;;;;5077288;28;20445;-54
2021/09/14 07:11:43;;;;;;;9.23;7.30;;;;;;;;;;5093554;28;20479;-51
2021/09/14 07:14:11;;;;;;;12.47;9.20;;;;;;;;;;5095068;28;20466;-50
2021/09/14 07:16:38;;;;;;;8.77;7.87;;;;;;;;;;5096208;28;20458;-58
2021/09/14 07:19:07;;;;;;;11.07;7.40;;;;;;;;;;5096438;28;20432;-54
2021/09/14 07:21:40;;;;;;;8.43;6.60;;;;;;;;;;5098707;28;20464;-55
2021/09/14 07:24:15;;;;;;;11.13;7.73;;;;;;;;;;5098560;28;20650;-57
2021/09/14 07:26:43;;;;;;;11.20;8.40;;;;;;;;;;5104112;28;20478;-56
2021/09/14 07:29:28;;;;;;;10.33;8.33;;;;;;;;;;5078932;28;20476;-49
2021/09/14 07:31:55;;;;;;;10.07;6.83;;;;;;;;;;5099566;28;20491;-53
2021/09/14 07:34:24;;;;;;;9.83;7.53;;;;;;;;;;5119469;28;20738;-52
2021/09/14 07:36:56;;;;;;;11.30;6.57;;;;;;;;;;5112526;28;20527;-56
2021/09/14 07:39:25;;;;;;;10.40;7.37;;;;;;;;;;5099644;28;20470;-52
2021/09/14 07:41:56;;;;;;;7.87;6.83;;;;;;;;;;5098966;28;20440;-51
2021/09/14 07:44:38;;;;;;;9.70;7.00;;;;;;;;;;5099209;28;20440;-53
2021/09/14 07:47:05;;;;;;;10.73;6.77;;;;;;;;;;5098759;28;20692;-50
2021/09/14 07:49:33;;;;;;;8.93;6.63;;;;;;;;;;5099211;28;20524;-50
2021/09/14 07:52:03;;;;;;;8.43;6.27;;;;;;;;;;5098854;28;20466;-48
2021/09/14 07:54:31;;;;;;;11.63;7.10;;;;;;;;;;5098687;28;20452;-53
2021/09/14 07:57:04;;;;;;;7.97;6.90;;;;;;;;;;5099483;28;20424;-53
2021/09/14 07:59:43;;;;;;;16.70;7.10;;;;;;;;;;5099084;28;20500;-51
2021/09/14 08:02:17;;;;;;;8.20;6.20;;;;;;;;;;5098614;28;20608;-48
2021/09/14 08:04:44;;;;;;;14.13;7.23;;;;;;;;;;5098144;28;20459;-47
2021/09/14 08:07:12;;;;;;;10.40;5.93;;;;;;;;;;5098628;28;20496;-52
2021/09/14 08:10:02;;;;;;;10.30;7.37;;;;;;;;;;5097467;28;20495;-59
2021/09/14 08:12:33;;;;;;;8.43;6.43;;;;;;;;;;5096535;28;20484;-57
2021/09/14 08:15:04;;;;;;;9.30;6.77;;;;;;;;;;5098783;28;20436;-50
2021/09/14 08:18:16;;;;;;;12.40;6.20;;;;;;;;;;5099065;28;20475;-53
2021/09/14 08:20:44;;;;;;;9.97;6.27;;;;;;;;;;5096629;28;20641;-57
2021/09/14 08:23:12;;;;;;;7.90;6.00;;;;;;;;;;5099192;28;20491;-48
2021/09/14 08:25:41;;;;;;;10.63;6.53;;;;;;;;;;5098337;28;20488;-56
2021/09/14 08:28:10;;;;;;;10.20;6.50;;;;;;;;;;5098637;28;20438;-49
2021/09/14 08:30:49;;;;;;;6.47;5.30;;;;;;;;;;5097569;28;20428;-54
2021/09/14 08:33:17;;;;;;;9.00;5.83;;;;;;;;;;5098005;28;20511;-48
2021/09/14 08:35:45;;;;;;;12.70;6.30;;;;;;;;;;5109067;28;20471;-53
2021/09/14 08:41:17;;;;;;;6.83;5.90;;;;;;;;;;5078106;28;20408;-51
2021/09/14 08:43:50;;;;;;;6.83;5.30;;;;;;;;;;5082496;28;20487;-55
2021/09/14 08:46:18;;;;;;;15.20;6.13;;;;;;;;;;5083078;28;20476;-55
2021/09/14 08:48:46;;;;;;;7.70;6.23;;;;;;;;;;5098013;28;20421;-50
2021/09/14 08:51:19;;;;;;;6.73;5.27;;;;;;;;;;5097716;28;20492;-50
2021/09/14 08:53:47;;;;;;;7.60;5.57;;;;;;;;;;5097842;28;20448;-52
2021/09/14 08:56:16;;;;;;;8.27;6.00;;;;;;;;;;5088627;28;20477;-57
2021/09/14 08:59:11;;;;;;;8.80;5.67;;;;;;;;;;5078240;28;20459;-52
2021/09/14 09:01:40;;;;;;;8.13;5.50;;;;;;;;;;5109051;28;20480;-57
2021/09/14 09:04:11;;;;;;;6.00;5.33;;;;;;;;;;5097699;28;20470;-55
2021/09/14 09:07:08;;;;;;;12.17;5.63;;;;;;;;;;5097442;28;20476;-56
2021/09/14 09:09:35;;;;;;;7.97;4.57;;;;;;;;;;5097176;28;20514;-58
2021/09/14 09:12:04;;;;;;;7.87;4.87;;;;;;;;;;5097677;28;20444;-57
2021/09/14 09:17:37;;;;;;;7.43;5.00;;;;;;;;;;5097399;28;20483;-57
2021/09/14 09:20:06;;;;;;;7.70;4.57;;;;;;;;;;5097376;28;20444;-63
2021/09/14 09:22:55;;;;;;;6.90;5.20;;;;;;;;;;5096681;28;20448;-56
2021/09/14 09:25:27;;;;;;;7.63;5.50;;;;;;;;;;5077022;28;20467;-56
2021/09/14 09:28:07;;;;;;;7.53;5.67;;;;;;;;;;5076659;28;20441;-60
2021/09/14 09:30:58;;;;;;;5.73;4.83;;;;;;;;;;5077337;28;20520;-51
2021/09/14 09:33:34;;;;;;;10.37;5.23;;;;;;;;;;5076711;28;20517;-47
2021/09/14 09:36:02;;;;;;;6.57;4.97;;;;;;;;;;5076845;28;20456;-46
2021/09/14 09:38:31;;;;;;;9.43;5.50;;;;;;;;;;5094093;28;20515;-54
2021/09/14 09:40:58;;;;;;;9.23;4.80;;;;;;;;;;5096881;28;20452;-48
2021/09/14 09:43:44;;;;;;;7.50;4.57;;;;;;;;;;5096538;28;20497;-57
2021/09/14 09:46:17;;;;;;;10.00;5.30;;;;;;;;;;5095515;28;20517;-51
2021/09/14 09:48:58;;;;;;;7.40;5.50;;;;;;;;;;5096255;28;20475;-53
2021/09/14 09:51:25;;;;;;;4.83;4.30;;;;;;;;;;5095812;28;20507;-59
2021/09/14 09:53:54;;;;;;;6.30;4.80;;;;;;;;;;5095825;28;20467;-55
2021/09/14 09:56:28;;;;;;;6.50;5.23;;;;;;;;;;5096458;28;20432;-59
2021/09/14 09:58:55;;;;;;;6.60;4.80;;;;;;;;;;5095943;28;20482;-58
2021/09/14 10:01:25;;;;;;;8.20;5.00;;;;;;;;;;5096230;28;20543;-54
2021/09/14 10:03:59;;;;;;;6.10;4.63;;;;;;;;;;5091331;28;20472;-62
2021/09/14 10:06:30;;;;;;;6.67;4.83;;;;;;;;;;5088293;28;20502;-49
2021/09/14 10:12:01;;;;;;;6.43;4.80;;;;;;;;;;5095568;28;20625;-49
2021/09/14 10:14:31;;;;;;;9.33;4.90;;;;;;;;;;5095568;28;20452;-53
2021/09/14 10:17:06;;;;;;;7.43;5.07;;;;;;;;;;5100541;28;20510;-50
2021/09/14 10:19:45;;;;;;;10.03;5.57;;;;;;;;;;5116506;28;20432;-58
2021/09/14 10:22:15;;;;;;;6.37;4.70;;;;;;;;;;5105152;28;20498;-48
2021/09/14 10:24:50;;;;;;;6.50;4.60;;;;;;;;;;5096077;28;20456;-57
2021/09/14 10:27:28;;;;;;;6.60;5.30;;;;;;;;;;5096257;28;20488;-53
2021/09/14 10:30:03;;;;;;;5.90;4.47;;;;;;;;;;5076316;28;20469;-46
2021/09/14 10:32:38;;;;;;;6.10;5.23;;;;;;;;;;5083287;28;20510;-56
2021/09/14 10:35:08;;;;;;;7.93;5.20;;;;;;;;;;5095003;28;20456;-50
2021/09/14 10:37:36;;;;;;;6.83;5.23;;;;;;;;;;5079128;28;20658;-52
2021/09/14 10:40:08;;;;;;;8.00;5.00;;;;;;;;;;5095777;28;20460;-58
2021/09/14 10:43:01;;;;;;;6.57;3.97;;;;;;;;;;5095144;28;20490;-53
2021/09/14 10:45:29;;;;;;;7.50;5.70;;;;;;;;;;5093196;28;20560;-54
2021/09/14 10:47:58;;;;;;;7.77;5.20;;;;;;;;;;5095339;28;20546;-58
2021/09/14 10:50:49;;;;;;;8.97;5.87;;;;;;;;;;5095144;28;20451;-53
2021/09/14 10:53:29;;;;;;;6.20;4.77;;;;;;;;;;5094614;28;20452;-53
2021/09/14 10:55:58;;;;;;;6.30;4.97;;;;;;;;;;5095342;28;20466;-54
2021/09/14 10:58:26;;;;;;;5.73;4.37;;;;;;;;;;5095488;28;20496;-50
2021/09/14 11:00:57;;;;;;;9.00;5.37;;;;;;;;;;5095602;28;20449;-53
2021/09/14 11:04:01;;;;;;;6.50;4.60;;;;;;;;;;5094936;28;20459;-55
2021/09/14 11:06:29;;;;;;;7.90;5.50;;;;;;;;;;5095030;28;20475;-52
2021/09/14 11:09:01;;;;;;;6.73;5.20;;;;;;;;;;5094668;28;20460;-54
2021/09/14 11:11:43;;;;;;;6.23;4.23;;;;;;;;;;5095362;28;20507;-54
2021/09/14 11:14:10;;;;;;;14.07;4.37;;;;;;;;;;5094768;28;20583;-51
2021/09/14 11:16:40;;;;;;;8.80;4.97;;;;;;;;;;5094541;28;20467;-52
2021/09/14 11:22:20;;;;;;;4.93;4.37;;;;;;;;;;5093613;28;20438;-55
2021/09/14 11:24:53;;;;;;;6.97;4.77;;;;;;;;;;5094998;28;20836;-53
2021/09/14 11:27:26;;;;;;;6.10;4.67;;;;;;;;;;5095158;28;20468;-52
2021/09/14 11:30:00;;;;;;;6.80;4.73;;;;;;;;;;5095136;28;20460;-52
2021/09/14 11:32:43;;;;;;;8.17;5.10;;;;;;;;;;5094597;28;20823;-54
2021/09/14 11:35:15;;;;;;;5.27;4.40;;;;;;;;;;5094430;28;20482;-55
2021/09/14 11:38:14;;;;;;;6.40;4.97;;;;;;;;;;5094573;28;20508;-57
2021/09/14 11:41:03;;;;;;;7.37;5.67;;;;;;;;;;5075454;28;20507;-54
2021/09/14 11:43:33;;;;;;;8.43;4.70;;;;;;;;;;5075201;28;20547;-55
2021/09/14 11:46:01;;;;;;;4.97;4.30;;;;;;;;;;5074593;28;20445;-53
2021/09/14 11:51:19;;;;;;;6.60;4.53;;;;;;;;;;5073200;28;20441;-57
2021/09/14 11:54:13;;;;;;;7.30;4.90;;;;;;;;;;5078890;28;20440;-48
2021/09/14 11:56:43;;;;;;;8.43;4.57;;;;;;;;;;5094271;28;20448;-58
2021/09/14 11:59:28;;;;;;;6.27;5.10;;;;;;;;;;5094198;28;20448;-57
2021/09/14 12:01:58;;;;;;;6.17;4.97;;;;;;;;;;5090181;28;20444;-57
2021/09/14 12:04:51;;;;;;;6.33;5.13;;;;;;;;;;5069101;28;20521;-54
2021/09/14 12:07:22;;;;;;;6.07;5.10;;;;;;;;;;5077826;28;20524;-54
2021/09/14 12:09:51;;;;;;;8.83;5.40;;;;;;;;;;5077831;28;20487;-57
2021/09/14 12:12:26;;;;;;;8.30;5.00;;;;;;;;;;5076824;28;20441;-61
2021/09/14 12:14:56;;;;;;;8.57;4.80;;;;;;;;;;5077912;28;20441;-51
2021/09/14 12:17:29;;;;;;;7.53;5.17;;;;;;;;;;5078021;28;20475;-55
2021/09/14 12:20:04;;;;;;;17.40;11.53;;;;;;;;;;5077179;28;20460;-57
2021/09/14 12:22:55;;;;;;;11.53;5.00;;;;;;;;;;5074665;28;20499;-57
2021/09/14 12:25:23;;;;;;;8.40;6.73;;;;;;;;;;5077308;28;20459;-55
2021/09/14 12:27:56;;;;;;;6.90;4.87;;;;;;;;;;5076908;28;20481;-57
2021/09/14 12:30:24;;;;;;;7.70;4.93;;;;;;;;;;5056853;28;20657;-55
2021/09/14 12:33:04;;;;;;;9.90;5.50;;;;;;;;;;5067024;28;20483;-60
2021/09/14 12:38:52;;;;;;;6.73;4.93;;;;;;;;;;5057308;28;20465;-56
2021/09/14 12:41:25;;;;;;;8.30;4.60;;;;;;;;;;5057194;28;20453;-56
2021/09/14 12:43:57;;;;;;;9.53;4.20;;;;;;;;;;5056400;28;20485;-62
2021/09/14 12:46:25;;;;;;;8.90;5.40;;;;;;;;;;5071504;28;20553;-55
2021/09/14 12:48:59;;;;;;;10.50;4.13;;;;;;;;;;5075708;28;20468;-59
2021/09/14 12:51:39;;;;;;;6.17;4.20;;;;;;;;;;5075035;28;20465;-59
2021/09/14 12:54:09;;;;;;;5.70;4.63;;;;;;;;;;5074559;28;20449;-57
2021/09/14 12:56:37;;;;;;;5.47;4.20;;;;;;;;;;5075339;28;20441;-55
2021/09/14 12:59:27;;;;;;;7.70;4.77;;;;;;;;;;5075271;28;20464;-63
2021/09/14 13:02:09;;;;;;;5.90;4.63;;;;;;;;;;5073517;28;20500;-59
2021/09/14 13:04:39;;;;;;;7.50;4.80;;;;;;;;;;5072778;28;20461;-59
2021/09/14 13:07:08;;;;;;;6.93;4.63;;;;;;;;;;5072605;28;20481;-60
2021/09/14 13:09:39;;;;;;;7.40;4.80;;;;;;;;;;5073859;28;20453;-61
2021/09/14 13:12:10;;;;;;;6.13;4.83;;;;;;;;;;5069622;28;20437;-59
2021/09/14 13:17:31;;;;;;;4.70;3.60;;;;;;;;;;5074260;28;20454;-60
2021/09/14 13:20:05;;;;;;;5.60;3.80;;;;;;;;;;5054017;28;20476;-57
2021/09/14 13:22:33;;;;;;;7.70;5.50;;;;;;;;;;5086856;28;20484;-57
2021/09/14 13:25:00;;;;;;;10.67;5.53;;;;;;;;;;5093921;28;20471;-62
2021/09/14 13:27:30;;;;;;;6.80;4.30;;;;;;;;;;5093521;28;20484;-57
2021/09/14 13:30:14;;;;;;;6.70;4.60;;;;;;;;;;5094882;28;20467;-57
2021/09/14 13:32:43;;;;;;;6.30;4.70;;;;;;;;;;5095230;28;20475;-57
2021/09/14 13:35:15;;;;;;;8.47;5.07;;;;;;;;;;5094582;28;20491;-58
2021/09/14 13:37:43;;;;;;;6.90;4.50;;;;;;;;;;5093630;28;20520;-59
2021/09/14 13:40:11;;;;;;;5.80;4.30;;;;;;;;;;5094021;28;20468;-58
2021/09/14 13:42:53;;;;;;;10.60;4.80;;;;;;;;;;5093593;28;20482;-58
2021/09/14 13:48:19;;;;;;;6.10;4.97;;;;;;;;;;5078071;28;20517;-57
2021/09/14 13:50:48;;;;;;;10.20;7.70;;;;;;;;;;5089748;28;20503;-61
2021/09/14 13:53:19;;;;;;;6.57;5.00;;;;;;;;;;5080324;28;20448;-56
2021/09/14 13:55:51;;;;;;;5.87;4.63;;;;;;;;;;5088482;28;20468;-57
2021/09/14 13:58:54;;;;;;;7.57;5.50;;;;;;;;;;5087876;28;20460;-59
2021/09/14 14:04:40;;;;;;;6.63;4.50;;;;;;;;;;5073860;28;20461;-56
2021/09/14 14:07:08;;;;;;;6.33;4.10;;;;;;;;;;5071238;28;20485;-58
2021/09/14 14:09:35;;;;;;;7.73;4.43;;;;;;;;;;5070966;28;20485;-60
2021/09/14 14:12:04;;;;;;;7.90;4.23;;;;;;;;;;5069531;28;20468;-61
2021/09/14 14:14:35;;;;;;;9.73;3.97;;;;;;;;;;5071481;28;20449;-61
2021/09/14 14:17:02;;;;;;;10.37;7.83;;;;;;;;;;5071202;28;20580;-62
2021/09/14 14:19:41;;;;;;;7.90;5.20;;;;;;;;;;5071367;28;20453;-59
2021/09/14 14:22:16;;;;;;;8.13;6.30;;;;;;;;;;5069948;28;20461;-63
2021/09/14 14:24:44;;;;;;;9.90;6.00;;;;;;;;;;5077402;28;20496;-60
2021/09/14 14:27:11;;;;;;;7.30;4.70;;;;;;;;;;5104460;28;20764;-60
2021/09/14 14:29:40;;;;;;;5.97;4.63;;;;;;;;;;5109873;28;20459;-57
2021/09/14 14:32:09;;;;;;;11.50;5.67;;;;;;;;;;5091390;28;20490;-60
2021/09/14 14:34:46;;;;;;;6.33;5.07;;;;;;;;;;5102789;28;20459;-61
2021/09/14 14:37:20;;;;;;;10.83;5.83;;;;;;;;;;5095836;28;20555;-55
2021/09/14 14:39:59;;;;;;;9.80;3.77;;;;;;;;;;5094300;28;20460;-61
2021/09/14 14:42:27;;;;;;;4.80;3.87;;;;;;;;;;5092160;28;20464;-61
2021/09/14 14:45:13;;;;;;;7.37;4.23;;;;;;;;;;5090691;28;20486;-59
2021/09/14 14:47:53;;;;;;;15.63;5.53;;;;;;;;;;5088552;28;20488;-62
2021/09/14 14:50:22;;;;;;;9.80;5.63;;;;;;;;;;5090739;28;20474;-57
2021/09/14 14:52:55;;;;;;;14.40;8.73;;;;;;;;;;5087055;28;20511;-62
2021/09/14 14:55:25;;;;;;;7.50;4.80;;;;;;;;;;5089284;28;20498;-59
2021/09/14 14:57:57;;;;;;;12.10;4.90;;;;;;;;;;5090403;28;20437;-60
2021/09/14 15:00:26;;;;;;;5.80;4.80;;;;;;;;;;5092128;28;20441;-60
2021/09/14 15:02:54;;;;;;;7.70;4.30;;;;;;;;;;5080057;28;20483;-59
2021/09/14 15:05:41;;;;;;;8.10;4.20;;;;;;;;;;5089670;28;20467;-57
2021/09/14 15:08:20;;;;;;;8.63;5.00;;;;;;;;;;5088999;28;20506;-58
2021/09/14 15:10:54;;;;;;;7.00;5.47;;;;;;;;;;5089968;28;20478;-55
2021/09/14 15:13:29;;;;;;;6.70;4.70;;;;;;;;;;5089259;28;20502;-60
2021/09/14 15:15:59;;;;;;;5.83;4.30;;;;;;;;;;5090432;28;20479;-59
2021/09/14 15:18:28;;;;;;;11.50;4.27;;;;;;;;;;5090954;28;20464;-57
2021/09/14 15:23:54;;;;;;;6.37;4.90;;;;;;;;;;5068323;28;20453;-62
2021/09/14 15:26:21;;;;;;;8.70;4.40;;;;;;;;;;5069231;28;20457;-60
2021/09/14 15:28:50;;;;;;;6.40;4.57;;;;;;;;;;5073999;28;21173;-59
2021/09/14 15:31:24;;;;;;;6.70;4.40;;;;;;;;;;5088093;28;20552;-60
2021/09/14 15:33:52;;;;;;;9.10;7.10;;;;;;;;;;5086957;28;20491;-56
2021/09/14 15:36:19;;;;;;;9.43;6.93;;;;;;;;;;5088301;28;20460;-61
2021/09/14 15:38:46;;;;;;;15.10;6.40;;;;;;;;;;5087869;28;20475;-61
2021/09/14 15:41:18;;;;;;;8.73;5.67;;;;;;;;;;5093290;28;20451;-62
2021/09/14 15:43:50;;;;;;;8.27;6.67;;;;;;;;;;5089122;28;20461;-62
2021/09/14 15:46:19;;;;;;;15.40;6.87;;;;;;;;;;5074803;28;20461;-57
2021/09/14 15:48:47;;;;;;;7.70;6.00;;;;;;;;;;5081334;28;20518;-62
2021/09/14 15:51:37;;;;;;;9.07;6.43;;;;;;;;;;5092557;28;20479;-60
2021/09/14 15:54:13;;;;;;;8.10;5.97;;;;;;;;;;5075893;28;20484;-58
2021/09/14 15:56:58;;;;;;;10.23;6.90;;;;;;;;;;5093466;28;20475;-58
2021/09/14 15:59:31;;;;;;;10.00;7.10;;;;;;;;;;5085701;28;20475;-58
2021/09/14 16:02:08;;;;;;;12.10;5.40;;;;;;;;;;5094531;28;20484;-59
2021/09/14 16:04:35;;;;;;;7.33;5.50;;;;;;;;;;5094448;28;20460;-61
2021/09/14 16:07:07;;;;;;;7.93;5.33;;;;;;;;;;5094210;28;20463;-60
2021/09/14 16:12:44;;;;;;;6.67;4.30;;;;;;;;;;5092021;28;20452;-61
2021/09/14 16:15:21;;;;;;;10.33;9.23;;;;;;;;;;5091953;28;20463;-57
2021/09/14 16:17:53;;;;;;;17.10;12.63;;;;;;;;;;5091883;28;20444;-58
2021/09/14 16:20:22;;;;;;;10.10;5.30;;;;;;;;;;5092564;28;20440;-57
2021/09/14 16:22:51;;;;;;;8.40;5.63;;;;;;;;;;5077737;28;20441;-52
2021/09/14 16:25:21;;;;;;;15.73;9.57;;;;;;;;;;5077645;28;20451;-63
2021/09/14 16:27:48;;;;;;;7.77;5.30;;;;;;;;;;5091962;28;20551;-61
2021/09/14 16:30:30;;;;;;;43.00;29.20;;;;;;;;;;5091377;28;20464;-63
2021/09/14 16:32:59;;;;;;;10.17;5.97;;;;;;;;;;5078169;28;20504;-61
2021/09/14 16:35:31;;;;;;;18.33;13.70;;;;;;;;;;5090971;28;20527;-62
2021/09/14 16:37:59;;;;;;;13.67;8.87;;;;;;;;;;5080542;28;20527;-60
2021/09/14 16:40:47;;;;;;;18.33;11.93;;;;;;;;;;5088457;28;20452;-60
2021/09/14 16:43:17;;;;;;;9.73;7.17;;;;;;;;;;5088275;28;20600;-60
2021/09/14 16:45:49;;;;;;;8.70;6.00;;;;;;;;;;5082359;28;20453;-58
2021/09/14 16:48:22;;;;;;;12.47;7.40;;;;;;;;;;5092172;28;20507;-61
2021/09/14 16:50:59;;;;;;;7.20;5.37;;;;;;;;;;5090239;28;20522;-62
2021/09/14 16:53:27;;;;;;;7.43;5.07;;;;;;;;;;5090820;28;20456;-60